createdAt,value
2018-12-04T00:01:33.141Z,63.75
2018-12-04T00:04:06.635Z,63.81
2018-12-04T00:06:35.057Z,64.03
2018-12-04T00:09:07.645Z,63.58
2018-12-04T00:11:36.114Z,62.92
2018-12-04T00:14:05.080Z,62.59
2018-12-04T00:16:33.485Z,63.02
2018-12-04T00:19:04.177Z,63.05
2018-12-04T00:21:32.582Z,62.71
2018-12-04T00:24:04.432Z,62.80
2018-12-04T00:26:32.836Z,62.92
2018-12-04T00:29:03.866Z,62.37
2018-12-04T00:31:32.296Z,63.16
2018-12-04T00:34:00.686Z,63.38
2018-12-04T00:36:29.333Z,63.09
2018-12-04T00:39:06.509Z,63.01
2018-12-04T00:41:34.972Z,62.95
2018-12-04T00:44:05.105Z,62.85
2018-12-04T00:46:33.580Z,62.22
2018-12-04T00:49:03.897Z,62.76
2018-12-04T00:51:32.312Z,62.37
2018-12-04T00:54:04.417Z,62.51
2018-12-04T00:56:32.849Z,62.39
2018-12-04T00:59:03.868Z,62.21
2018-12-04T01:01:32.273Z,62.67
2018-12-04T01:04:00.671Z,61.79
2018-12-04T01:06:29.226Z,61.93
2018-12-04T01:08:57.657Z,61.56
2018-12-04T01:11:26.279Z,62.37
2018-12-04T01:13:54.681Z,62.09
2018-12-04T01:16:23.101Z,62.35
2018-12-04T01:18:51.502Z,62.27
2018-12-04T01:21:19.948Z,62.19
2018-12-04T01:23:48.395Z,62.59
2018-12-04T01:26:16.952Z,62.50
2018-12-04T01:28:45.940Z,62.16
2018-12-04T01:31:14.565Z,62.82
2018-12-04T01:33:43.024Z,62.26
2018-12-04T01:36:11.477Z,62.00
2018-12-04T01:38:39.897Z,62.09
2018-12-04T01:41:08.301Z,62.89
2018-12-04T01:43:37.004Z,62.68
2018-12-04T01:46:07.249Z,61.97
2018-12-04T01:48:35.680Z,62.13
2018-12-04T01:51:05.165Z,62.41
2018-12-04T01:53:33.608Z,62.47
2018-12-04T01:56:04.554Z,62.16
2018-12-04T01:58:33.001Z,62.92
2018-12-04T02:01:03.628Z,62.52
2018-12-04T02:03:32.069Z,63.24
2018-12-04T02:06:00.462Z,62.87
2018-12-04T02:08:28.890Z,62.27
2018-12-04T02:10:57.271Z,62.73
2018-12-04T02:13:25.897Z,62.65
2018-12-04T02:15:54.284Z,63.13
2018-12-04T02:18:22.714Z,63.22
2018-12-04T02:20:51.105Z,63.28
2018-12-04T02:23:19.540Z,62.53
2018-12-04T02:25:47.928Z,62.82
2018-12-04T02:28:16.336Z,63.56
2018-12-04T02:30:44.731Z,63.02
2018-12-04T02:33:13.148Z,63.74
2018-12-04T02:35:41.553Z,62.82
2018-12-04T02:38:10.001Z,63.11
2018-12-04T02:40:38.400Z,63.05
2018-12-04T02:43:06.837Z,62.59
2018-12-04T02:45:35.241Z,62.69
2018-12-04T02:48:05.377Z,62.45
2018-12-04T02:50:33.904Z,62.22
2018-12-04T02:53:05.615Z,62.37
2018-12-04T02:55:34.039Z,62.31
2018-12-04T02:58:05.393Z,62.43
2018-12-04T03:00:33.802Z,62.20
2018-12-04T03:03:06.147Z,61.61
2018-12-04T03:05:34.557Z,61.18
2018-12-04T03:08:05.376Z,61.19
2018-12-04T03:10:33.789Z,60.95
2018-12-04T03:13:04.359Z,60.88
2018-12-04T03:15:32.830Z,61.06
2018-12-04T03:18:04.487Z,61.14
2018-12-04T03:20:32.916Z,61.44
2018-12-04T03:23:03.669Z,61.42
2018-12-04T03:25:32.104Z,60.67
2018-12-04T03:28:00.513Z,60.75
2018-12-04T03:30:28.963Z,61.75
2018-12-04T03:32:57.375Z,61.39
2018-12-04T03:35:25.822Z,61.77
2018-12-04T03:37:54.237Z,61.97
2018-12-04T03:40:22.672Z,61.46
2018-12-04T03:42:51.076Z,61.76
2018-12-04T03:45:19.517Z,61.63
2018-12-04T03:47:47.921Z,62.33
2018-12-04T03:50:16.364Z,61.94
2018-12-04T03:52:44.759Z,62.13
2018-12-04T03:55:13.205Z,62.54
2018-12-04T03:57:41.821Z,62.66
2018-12-04T04:00:10.255Z,62.01
2018-12-04T04:02:38.788Z,62.88
2018-12-04T04:05:07.465Z,62.41
2018-12-04T04:07:35.871Z,62.71
2018-12-04T04:10:06.515Z,62.91
2018-12-04T04:12:34.917Z,62.68
2018-12-04T04:15:05.566Z,63.81
2018-12-04T04:17:34.004Z,63.75
2018-12-04T04:20:04.373Z,63.37
2018-12-04T04:22:32.814Z,63.84
2018-12-04T04:25:03.670Z,64.54
2018-12-04T04:27:32.122Z,64.16
2018-12-04T04:30:00.530Z,64.38
2018-12-04T04:32:28.960Z,64.53
2018-12-04T04:34:57.389Z,65.46
2018-12-04T04:37:25.816Z,64.63
2018-12-04T04:39:54.219Z,64.55
2018-12-04T04:42:22.650Z,64.73
2018-12-04T04:44:51.057Z,65.04
2018-12-04T04:47:19.482Z,65.29
2018-12-04T04:49:47.887Z,65.31
2018-12-04T04:52:16.319Z,65.21
2018-12-04T04:54:44.730Z,65.35
2018-12-04T04:57:13.157Z,65.30
2018-12-04T04:59:41.788Z,65.92
2018-12-04T05:02:10.285Z,66.10
2018-12-04T05:04:38.751Z,66.19
2018-12-04T05:07:07.175Z,66.31
2018-12-04T05:09:35.572Z,66.16
2018-12-04T05:12:05.229Z,65.58
2018-12-04T05:14:33.638Z,65.76
2018-12-04T05:17:04.620Z,65.97
2018-12-04T05:19:33.034Z,65.50
2018-12-04T05:22:04.464Z,66.42
2018-12-04T05:24:32.893Z,65.28
2018-12-04T05:27:03.677Z,65.05
2018-12-04T05:29:32.093Z,65.31
2018-12-04T05:32:00.525Z,64.75
2018-12-04T05:34:29.010Z,65.34
2018-12-04T05:36:57.458Z,65.07
2018-12-04T05:39:25.856Z,64.54
2018-12-04T05:41:54.253Z,64.80
2018-12-04T05:44:22.698Z,65.00
2018-12-04T05:46:51.110Z,64.72
2018-12-04T05:49:19.500Z,64.24
2018-12-04T05:51:48.243Z,64.26
2018-12-04T05:54:16.641Z,64.59
2018-12-04T05:56:45.037Z,63.62
2018-12-04T05:59:13.497Z,63.40
2018-12-04T06:01:41.912Z,63.34
2018-12-04T06:04:10.354Z,63.47
2018-12-04T06:06:38.806Z,64.08
2018-12-04T06:09:07.932Z,63.14
2018-12-04T06:11:36.393Z,63.19
2018-12-04T06:14:05.042Z,63.19
2018-12-04T06:16:33.493Z,62.99
2018-12-04T06:19:03.665Z,63.41
2018-12-04T06:21:32.064Z,62.52
2018-12-04T06:24:00.617Z,62.88
2018-12-04T06:26:29.062Z,63.15
2018-12-04T06:28:57.589Z,63.19
2018-12-04T06:31:25.965Z,62.74
2018-12-04T06:33:54.393Z,62.62
2018-12-04T06:36:23.208Z,63.33
2018-12-04T06:38:51.896Z,63.20
2018-12-04T06:41:20.285Z,63.43
2018-12-04T06:43:48.712Z,63.22
2018-12-04T06:46:17.109Z,63.41
2018-12-04T06:48:45.558Z,62.75
2018-12-04T06:51:13.959Z,63.47
2018-12-04T06:53:42.400Z,63.18
2018-12-04T06:56:10.816Z,63.13
2018-12-04T06:58:39.253Z,64.19
2018-12-04T07:01:07.651Z,64.52
2018-12-04T07:03:36.076Z,64.35
2018-12-04T07:06:05.011Z,64.95
2018-12-04T07:08:33.438Z,64.13
2018-12-04T07:11:03.441Z,64.53
2018-12-04T07:13:31.860Z,64.48
2018-12-04T07:16:00.253Z,65.08
2018-12-04T07:18:28.688Z,65.24
2018-12-04T07:20:57.080Z,65.23
2018-12-04T07:23:25.512Z,64.61
2018-12-04T07:25:53.916Z,65.35
2018-12-04T07:28:22.340Z,64.48
2018-12-04T07:30:50.809Z,64.02
2018-12-04T07:33:19.274Z,64.55
2018-12-04T07:35:47.717Z,63.98
2018-12-04T07:38:16.168Z,64.40
2018-12-04T07:40:44.599Z,63.91
2018-12-04T07:43:12.996Z,64.75
2018-12-04T07:45:41.420Z,64.75
2018-12-04T07:48:09.828Z,65.01
2018-12-04T07:50:38.256Z,64.42
2018-12-04T07:53:06.665Z,64.00
2018-12-04T07:55:35.084Z,64.63
2018-12-04T07:58:05.278Z,64.31
2018-12-04T08:00:33.943Z,63.86
2018-12-04T08:03:04.549Z,63.93
2018-12-04T08:05:33.005Z,63.11
2018-12-04T08:10:35.829Z,64.22
2018-12-04T08:13:05.753Z,63.18
2018-12-04T08:15:34.184Z,63.99
2018-12-04T08:18:05.865Z,63.20
2018-12-04T08:20:34.432Z,63.75
2018-12-04T08:23:05.404Z,63.66
2018-12-04T08:25:33.948Z,63.32
2018-12-04T08:28:04.633Z,63.42
2018-12-04T08:30:33.064Z,63.28
2018-12-04T08:33:04.209Z,64.04
2018-12-04T08:35:32.644Z,63.91
2018-12-04T08:38:03.633Z,64.27
2018-12-04T08:40:32.058Z,63.58
2018-12-04T08:43:00.440Z,64.09
2018-12-04T08:45:28.857Z,64.54
2018-12-04T08:47:57.242Z,64.60
2018-12-04T08:50:25.676Z,64.15
2018-12-04T08:52:54.062Z,64.63
2018-12-04T08:55:22.476Z,65.83
2018-12-04T08:57:50.880Z,67.56
2018-12-04T09:00:20.009Z,68.08
2018-12-04T09:02:48.416Z,69.26
2018-12-04T09:05:16.915Z,68.62
2018-12-04T09:07:45.456Z,67.98
2018-12-04T09:10:14.385Z,67.91
2018-12-04T09:12:42.782Z,68.00
2018-12-04T09:15:11.177Z,67.94
2018-12-04T09:17:39.609Z,68.06
2018-12-04T09:20:08.774Z,68.40
2018-12-04T09:22:37.336Z,69.27
2018-12-04T09:25:05.968Z,68.85
2018-12-04T09:27:34.376Z,70.12
2018-12-04T09:30:06.412Z,69.47
2018-12-04T09:32:34.929Z,70.20
2018-12-04T09:35:06.347Z,70.37
2018-12-04T09:37:34.738Z,70.76
2018-12-04T09:40:05.983Z,69.50
2018-12-04T09:42:34.389Z,70.24
2018-12-04T09:45:06.596Z,69.77
2018-12-04T09:47:34.992Z,69.39
2018-12-04T09:50:06.847Z,68.84
2018-12-04T09:52:35.228Z,69.61
2018-12-04T09:55:05.655Z,67.72
2018-12-04T09:57:34.084Z,68.55
2018-12-04T10:00:05.225Z,69.77
2018-12-04T10:02:33.659Z,69.18
2018-12-04T10:05:04.764Z,70.52
2018-12-04T10:07:33.184Z,71.40
2018-12-04T10:10:03.720Z,71.82
2018-12-04T10:12:32.136Z,71.03
2018-12-04T10:15:00.526Z,71.37
2018-12-04T10:17:28.980Z,71.32
2018-12-04T10:19:57.388Z,71.14
2018-12-04T10:22:25.893Z,70.67
2018-12-04T10:24:54.556Z,70.04
2018-12-04T10:27:22.960Z,69.46
2018-12-04T10:29:51.396Z,69.47
2018-12-04T10:32:19.808Z,69.33
2018-12-04T10:34:48.209Z,69.57
2018-12-04T10:37:16.640Z,69.62
2018-12-04T10:39:45.030Z,68.68
2018-12-04T10:42:13.433Z,68.54
2018-12-04T10:44:41.841Z,68.82
2018-12-04T10:47:10.236Z,67.73
2018-12-04T10:49:39.883Z,67.49
2018-12-04T10:52:08.598Z,67.77
2018-12-04T10:54:38.622Z,66.64
2018-12-04T10:57:09.828Z,66.57
2018-12-04T10:59:39.743Z,66.34
2018-12-04T11:02:13.406Z,66.04
2018-12-04T11:04:41.804Z,65.85
2018-12-04T11:07:10.193Z,65.68
2018-12-04T11:09:40.145Z,64.70
2018-12-04T11:12:12.221Z,64.63
2018-12-04T11:14:39.201Z,64.57
2018-12-04T11:17:07.720Z,64.28
2018-12-04T11:19:36.169Z,63.58
2018-12-04T11:22:05.131Z,63.38
2018-12-04T11:24:33.568Z,63.23
2018-12-04T11:27:04.642Z,62.28
2018-12-04T11:29:33.739Z,62.34
2018-12-04T11:32:04.649Z,62.19
2018-12-04T11:34:33.086Z,61.50
2018-12-04T11:37:04.406Z,61.74
2018-12-04T11:39:32.832Z,61.35
2018-12-04T11:42:03.629Z,61.29
2018-12-04T11:44:32.094Z,61.15
2018-12-04T11:47:00.585Z,61.25
2018-12-04T11:49:29.022Z,61.23
2018-12-04T11:51:57.419Z,62.13
2018-12-04T11:54:25.850Z,62.48
2018-12-04T11:56:54.488Z,61.80
2018-12-04T11:59:23.029Z,62.80
2018-12-04T12:01:51.425Z,62.45
2018-12-04T12:04:19.858Z,61.57
2018-12-04T12:06:48.366Z,61.63
2018-12-04T12:09:16.812Z,62.35
2018-12-04T12:11:45.224Z,61.64
2018-12-04T12:14:13.977Z,60.96
2018-12-04T12:16:42.395Z,61.01
2018-12-04T12:19:10.792Z,61.47
2018-12-04T12:21:39.235Z,61.67
2018-12-04T12:24:07.628Z,61.94
2018-12-04T12:26:36.017Z,61.34
2018-12-04T12:29:06.293Z,61.86
2018-12-04T12:31:34.697Z,61.31
2018-12-04T12:34:05.342Z,61.62
2018-12-04T12:36:33.782Z,60.98
2018-12-04T12:39:04.771Z,61.50
2018-12-04T12:41:33.278Z,60.82
2018-12-04T12:44:03.634Z,60.15
2018-12-04T12:46:32.045Z,60.33
2018-12-04T12:49:00.788Z,59.36
2018-12-04T12:51:29.169Z,59.62
2018-12-04T12:53:57.613Z,59.12
2018-12-04T12:56:26.032Z,59.76
2018-12-04T12:58:54.445Z,59.01
2018-12-04T13:01:22.885Z,59.19
2018-12-04T13:03:51.274Z,57.69
2018-12-04T13:06:19.720Z,57.80
2018-12-04T13:08:48.156Z,57.22
2018-12-04T13:11:16.669Z,57.57
2018-12-04T13:13:45.077Z,57.96
2018-12-04T13:16:13.476Z,57.42
2018-12-04T13:18:42.060Z,57.27
2018-12-04T13:21:10.490Z,57.43
2018-12-04T13:23:39.336Z,58.16
2018-12-04T13:26:07.750Z,58.45
2018-12-04T13:28:36.209Z,57.65
2018-12-04T13:31:05.088Z,57.69
2018-12-04T13:33:33.492Z,57.35
2018-12-04T13:36:03.589Z,57.43
2018-12-04T13:38:32.038Z,57.79
2018-12-04T13:41:00.445Z,58.24
2018-12-04T13:43:28.885Z,57.40
2018-12-04T13:45:57.513Z,58.34
2018-12-04T13:48:25.921Z,57.72
2018-12-04T13:50:54.327Z,57.30
2018-12-04T13:53:22.715Z,57.82
2018-12-04T13:55:51.132Z,57.82
2018-12-04T13:58:19.529Z,57.76
2018-12-04T14:00:48.046Z,58.04
2018-12-04T14:03:16.494Z,57.77
2018-12-04T14:05:44.921Z,57.74
2018-12-04T14:08:13.444Z,57.71
2018-12-04T14:10:41.950Z,58.25
2018-12-04T14:13:10.332Z,57.88
2018-12-04T14:15:39.396Z,58.61
2018-12-04T14:18:08.143Z,58.89
2018-12-04T14:20:36.538Z,59.38
2018-12-04T14:23:06.703Z,60.30
2018-12-04T14:25:35.088Z,60.01
2018-12-04T14:28:06.748Z,61.96
2018-12-04T14:30:35.132Z,61.84
2018-12-04T14:33:06.920Z,62.43
2018-12-04T14:35:35.680Z,63.32
2018-12-04T14:38:06.528Z,63.46
2018-12-04T14:40:35.007Z,64.02
2018-12-04T14:43:06.687Z,64.31
2018-12-04T14:45:35.114Z,65.20
2018-12-04T14:48:05.924Z,65.44
2018-12-04T14:50:34.675Z,65.49
2018-12-04T14:53:08.673Z,65.76
2018-12-04T14:55:37.149Z,65.10
2018-12-04T14:58:07.079Z,65.23
2018-12-04T15:00:36.120Z,65.32
2018-12-04T15:03:07.390Z,64.64
2018-12-04T15:05:35.935Z,64.91
2018-12-04T15:08:06.809Z,64.81
2018-12-04T15:10:36.501Z,65.12
2018-12-04T15:13:06.082Z,65.17
2018-12-04T15:15:37.078Z,65.87
2018-12-04T15:18:07.378Z,65.72
2018-12-04T15:20:35.920Z,66.51
2018-12-04T15:23:06.064Z,66.08
2018-12-04T15:25:34.625Z,66.29
2018-12-04T15:28:05.228Z,66.72
2018-12-04T15:30:33.792Z,67.29
2018-12-04T15:33:07.545Z,67.31
2018-12-04T15:35:36.554Z,68.59
2018-12-04T15:38:06.012Z,68.12
2018-12-04T15:40:34.549Z,67.10
2018-12-04T15:43:05.358Z,67.80
2018-12-04T15:45:33.953Z,67.08
2018-12-04T15:48:04.662Z,67.00
2018-12-04T15:50:33.162Z,66.94
2018-12-04T15:53:03.505Z,68.25
2018-12-04T15:55:32.332Z,68.97
2018-12-04T15:58:00.817Z,68.77
2018-12-04T16:00:29.278Z,68.64
2018-12-04T16:02:58.352Z,68.67
2018-12-04T16:05:26.946Z,69.15
2018-12-04T16:08:07.950Z,69.79
2018-12-04T16:10:36.456Z,68.15
2018-12-04T16:15:52.433Z,69.14
2018-12-04T16:18:22.252Z,69.07
2018-12-04T16:20:50.637Z,69.00
2018-12-04T16:23:19.105Z,69.37
2018-12-04T16:25:47.492Z,69.06
2018-12-04T16:28:15.877Z,69.30
2018-12-04T16:30:44.412Z,68.99
2018-12-04T16:33:12.800Z,69.06
2018-12-04T16:35:41.277Z,69.12
2018-12-04T16:38:09.656Z,68.45
2018-12-04T16:40:41.933Z,69.29
2018-12-04T16:43:10.344Z,69.38
2018-12-04T16:45:38.789Z,69.93
2018-12-04T16:48:07.200Z,70.15
2018-12-04T16:50:35.610Z,69.60
2018-12-04T16:53:08.209Z,70.38
2018-12-04T16:55:36.733Z,71.09
2018-12-04T16:58:06.141Z,70.41
2018-12-04T17:00:34.640Z,70.07
2018-12-04T17:03:05.261Z,70.53
2018-12-04T17:05:33.691Z,70.34
2018-12-04T17:08:04.664Z,70.24
2018-12-04T17:10:33.057Z,70.65
2018-12-04T17:13:05.838Z,70.08
2018-12-04T17:15:34.249Z,69.68
2018-12-04T17:18:06.389Z,69.45
2018-12-04T17:20:34.777Z,70.63
2018-12-04T17:23:06.800Z,70.49
2018-12-04T17:25:35.188Z,70.01
2018-12-04T17:28:05.825Z,70.22
2018-12-04T17:30:34.225Z,70.18
2018-12-04T17:33:05.372Z,71.07
2018-12-04T17:35:36.197Z,70.24
2018-12-04T17:38:06.464Z,69.63
2018-12-04T17:40:34.840Z,69.72
2018-12-04T17:43:06.117Z,68.16
2018-12-04T17:45:34.501Z,67.97
2018-12-04T17:48:05.216Z,68.75
2018-12-04T17:50:33.592Z,68.58
2018-12-04T17:53:08.897Z,67.81
2018-12-04T17:55:37.296Z,67.20
2018-12-04T17:58:05.830Z,66.22
2018-12-04T18:00:34.298Z,65.87
2018-12-04T18:03:05.273Z,65.87
2018-12-04T18:05:33.807Z,65.51
2018-12-04T18:08:04.558Z,65.09
2018-12-04T18:10:32.932Z,64.63
2018-12-04T18:13:04.292Z,63.74
2018-12-04T18:15:33.383Z,63.89
2018-12-04T18:18:03.715Z,63.82
2018-12-04T18:20:32.253Z,63.20
2018-12-04T18:23:04.363Z,63.41
2018-12-04T18:25:32.752Z,64.43
2018-12-04T18:28:03.584Z,63.32
2018-12-04T18:30:31.973Z,62.49
2018-12-04T18:33:00.456Z,63.11
2018-12-04T18:35:28.836Z,63.56
2018-12-04T18:37:57.279Z,63.68
2018-12-04T18:40:25.664Z,63.39
2018-12-04T18:42:54.093Z,63.84
2018-12-04T18:45:22.489Z,64.10
2018-12-04T18:47:50.950Z,63.70
2018-12-04T18:50:19.331Z,64.18
2018-12-04T18:52:47.802Z,63.14
2018-12-04T18:55:22.149Z,62.73
2018-12-04T18:57:50.852Z,62.78
2018-12-04T19:00:19.456Z,62.57
2018-12-04T19:02:47.912Z,62.33
2018-12-04T19:05:16.415Z,61.87
2018-12-04T19:07:45.206Z,61.81
2018-12-04T19:10:14.345Z,62.07
2018-12-04T19:12:43.427Z,61.91
2018-12-04T19:15:11.824Z,61.26
2018-12-04T19:17:40.284Z,60.85
2018-12-04T19:20:09.533Z,60.29
2018-12-04T19:22:38.606Z,61.00
2018-12-04T19:25:09.729Z,61.42
2018-12-04T19:27:38.261Z,60.67
2018-12-04T19:30:11.139Z,60.13
2018-12-04T19:32:39.620Z,60.50
2018-12-04T19:35:09.939Z,60.70
2018-12-04T19:37:38.656Z,59.95
2018-12-04T19:40:11.570Z,59.95
2018-12-04T19:42:44.121Z,59.83
2018-12-04T19:45:13.137Z,59.56
2018-12-04T19:47:42.355Z,59.67
2018-12-04T19:50:11.216Z,59.97
2018-12-04T19:52:39.901Z,59.81
2018-12-04T19:55:08.471Z,60.33
2018-12-04T19:57:37.232Z,60.26
2018-12-04T20:00:07.601Z,60.10
2018-12-04T20:02:36.277Z,59.97
2018-12-04T20:05:10.595Z,61.59
2018-12-04T20:07:39.165Z,61.28
2018-12-04T20:10:11.321Z,61.34
2018-12-04T20:12:40.833Z,60.71
2018-12-04T20:15:09.812Z,61.02
2018-12-04T20:17:38.608Z,60.41
2018-12-04T20:20:08.153Z,59.36
2018-12-04T20:22:36.575Z,58.52
2018-12-04T20:25:08.638Z,58.79
2018-12-04T20:27:37.645Z,57.26
2018-12-04T20:30:08.068Z,56.92
2018-12-04T20:32:36.500Z,57.16
2018-12-04T20:35:05.565Z,57.24
2018-12-04T20:37:33.983Z,56.93
2018-12-04T20:40:04.725Z,56.99
2018-12-04T20:42:33.155Z,57.34
2018-12-04T20:45:03.671Z,57.47
2018-12-04T20:47:32.047Z,58.17
2018-12-04T20:50:00.482Z,58.74
2018-12-04T20:52:28.869Z,58.91
2018-12-04T20:54:57.338Z,58.97
2018-12-04T20:57:25.750Z,58.95
2018-12-04T20:59:54.184Z,58.38
2018-12-04T21:02:22.653Z,58.85
2018-12-04T21:04:51.104Z,59.29
2018-12-04T21:07:19.733Z,59.96
2018-12-04T21:09:48.141Z,59.95
2018-12-04T21:12:16.604Z,59.81
2018-12-04T21:14:45.017Z,58.37
2018-12-04T21:17:13.424Z,59.14
2018-12-04T21:19:42.041Z,59.06
2018-12-04T21:22:10.470Z,59.28
2018-12-04T21:24:38.852Z,59.61
2018-12-04T21:27:12.070Z,59.78
2018-12-04T21:29:45.737Z,59.17
2018-12-04T21:33:17.099Z,59.79
2018-12-04T21:35:50.783Z,59.27
2018-12-04T21:38:25.556Z,58.67
2018-12-04T21:41:05.403Z,58.03
2018-12-04T21:43:39.793Z,58.05
2018-12-04T21:47:16.921Z,58.37
2018-12-04T21:49:45.435Z,58.70
2018-12-04T21:52:13.846Z,58.87
2018-12-04T21:54:42.277Z,58.72
2018-12-04T21:57:10.720Z,59.32
2018-12-04T21:59:39.278Z,59.07
2018-12-04T22:02:07.814Z,59.11
2018-12-04T22:04:36.230Z,58.96
2018-12-04T22:07:05.989Z,58.98
2018-12-04T22:09:34.898Z,59.57
2018-12-04T22:12:06.169Z,58.86
2018-12-04T22:14:34.653Z,58.88
2018-12-04T22:17:05.243Z,59.06
2018-12-04T22:19:33.813Z,58.86
2018-12-04T22:22:04.466Z,58.86
2018-12-04T22:24:32.916Z,58.73
2018-12-04T22:27:03.485Z,59.12
2018-12-04T22:29:31.866Z,59.45
2018-12-04T22:32:00.386Z,59.28
2018-12-04T22:34:28.780Z,59.53
2018-12-04T22:36:57.906Z,59.10
2018-12-04T22:39:26.551Z,59.48
2018-12-04T22:41:55.040Z,59.61
2018-12-04T22:44:23.440Z,59.46
2018-12-04T22:46:52.102Z,60.00
2018-12-04T22:49:20.492Z,59.71
2018-12-04T22:51:48.921Z,59.51
2018-12-04T22:54:17.312Z,59.43
2018-12-04T22:56:45.754Z,59.86
2018-12-04T22:59:14.146Z,59.91
2018-12-04T23:01:42.953Z,60.62
2018-12-04T23:04:11.465Z,60.07
2018-12-04T23:06:39.904Z,60.18
2018-12-04T23:09:10.433Z,59.53
2018-12-04T23:11:39.306Z,60.25
2018-12-04T23:14:08.069Z,60.20
2018-12-04T23:16:36.629Z,59.67
2018-12-04T23:19:07.305Z,60.08
2018-12-04T23:21:35.742Z,59.24
2018-12-04T23:24:06.174Z,59.95
2018-12-04T23:26:34.696Z,59.79
2018-12-04T23:29:07.680Z,59.35
2018-12-04T23:31:36.191Z,60.05
2018-12-04T23:34:05.425Z,60.33
2018-12-04T23:36:33.809Z,60.29
2018-12-04T23:39:08.448Z,60.10
2018-12-04T23:41:36.956Z,60.78
2018-12-04T23:44:05.527Z,61.40
2018-12-04T23:46:33.969Z,60.64
2018-12-04T23:49:04.796Z,60.52
2018-12-04T23:51:33.193Z,61.46
2018-12-04T23:54:03.717Z,60.42
2018-12-04T23:56:32.093Z,60.41
2018-12-04T23:59:00.525Z,59.92
